sensor_id;sensor_type;location;lat;lon;timestamp;P1;durP1;ratioP1;P2;durP2;ratioP2
5549;SDS011;2798;42.716;23.256;2022-09-01T00:02:06;25.10;;;15.17;;
5549;SDS011;2798;42.716;23.256;2022-09-01T00:04:33;20.80;;;14.93;;
5549;SDS011;2798;42.716;23.256;2022-09-01T00:07:03;19.50;;;15.00;;
5549;SDS011;2798;42.716;23.256;2022-09-01T00:09:32;18.87;;;15.13;;
5549;SDS011;2798;42.716;23.256;2022-09-01T00:11:58;27.70;;;15.90;;
5549;SDS011;2798;42.716;23.256;2022-09-01T00:14:26;22.03;;;14.30;;
5549;SDS011;2798;42.716;23.256;2022-09-01T00:16:55;23.03;;;15.07;;
5549;SDS011;2798;42.716;23.256;2022-09-01T00:19:22;19.07;;;14.80;;
5549;SDS011;2798;42.716;23.256;2022-09-01T00:21:48;20.30;;;15.37;;
5549;SDS011;2798;42.716;23.256;2022-09-01T00:24:14;25.70;;;16.20;;
5549;SDS011;2798;42.716;23.256;2022-09-01T00:26:42;31.47;;;15.67;;
5549;SDS011;2798;42.716;23.256;2022-09-01T00:29:09;23.57;;;16.90;;
5549;SDS011;2798;42.716;23.256;2022-09-01T00:31:35;22.23;;;16.80;;
5549;SDS011;2798;42.716;23.256;2022-09-01T00:34:01;21.50;;;16.37;;
5549;SDS011;2798;42.716;23.256;2022-09-01T00:36:27;30.53;;;17.60;;
5549;SDS011;2798;42.716;23.256;2022-09-01T00:38:53;24.13;;;15.70;;
5549;SDS011;2798;42.716;23.256;2022-09-01T00:41:21;27.70;;;16.80;;
5549;SDS011;2798;42.716;23.256;2022-09-01T00:43:55;28.60;;;15.90;;
5549;SDS011;2798;42.716;23.256;2022-09-01T00:46:28;20.87;;;14.30;;
5549;SDS011;2798;42.716;23.256;2022-09-01T00:51:31;18.27;;;14.33;;
5549;SDS011;2798;42.716;23.256;2022-09-01T00:53:58;23.70;;;15.20;;
5549;SDS011;2798;42.716;23.256;2022-09-01T00:56:25;29.53;;;16.93;;
5549;SDS011;2798;42.716;23.256;2022-09-01T00:58:52;27.30;;;16.60;;
5549;SDS011;2798;42.716;23.256;2022-09-01T01:01:19;29.20;;;16.70;;
5549;SDS011;2798;42.716;23.256;2022-09-01T01:03:44;28.97;;;16.10;;
5549;SDS011;2798;42.716;23.256;2022-09-01T01:06:11;26.57;;;16.07;;
5549;SDS011;2798;42.716;23.256;2022-09-01T01:08:40;22.70;;;15.80;;
5549;SDS011;2798;42.716;23.256;2022-09-01T01:11:22;24.63;;;16.23;;
5549;SDS011;2798;42.716;23.256;2022-09-01T01:16:16;27.57;;;17.17;;
5549;SDS011;2798;42.716;23.256;2022-09-01T01:18:42;31.00;;;18.00;;
5549;SDS011;2798;42.716;23.256;2022-09-01T01:21:10;27.13;;;18.17;;
5549;SDS011;2798;42.716;23.256;2022-09-01T01:26:33;29.77;;;18.23;;
5549;SDS011;2798;42.716;23.256;2022-09-01T01:28:59;25.10;;;16.63;;
5549;SDS011;2798;42.716;23.256;2022-09-01T01:31:27;25.03;;;16.87;;
5549;SDS011;2798;42.716;23.256;2022-09-01T01:33:54;25.47;;;16.70;;
5549;SDS011;2798;42.716;23.256;2022-09-01T01:39:00;23.53;;;16.20;;
5549;SDS011;2798;42.716;23.256;2022-09-01T01:41:32;21.07;;;15.70;;
5549;SDS011;2798;42.716;23.256;2022-09-01T01:44:00;22.70;;;15.00;;
5549;SDS011;2798;42.716;23.256;2022-09-01T01:46:28;22.37;;;15.57;;
5549;SDS011;2798;42.716;23.256;2022-09-01T01:48:54;23.10;;;16.60;;
5549;SDS011;2798;42.716;23.256;2022-09-01T01:51:21;21.53;;;15.73;;
5549;SDS011;2798;42.716;23.256;2022-09-01T01:53:52;21.40;;;15.47;;
5549;SDS011;2798;42.716;23.256;2022-09-01T01:56:24;22.60;;;15.13;;
5549;SDS011;2798;42.716;23.256;2022-09-01T01:58:53;22.20;;;15.20;;
5549;SDS011;2798;42.716;23.256;2022-09-01T02:01:20;21.53;;;16.30;;
5549;SDS011;2798;42.716;23.256;2022-09-01T02:03:49;18.87;;;15.27;;
5549;SDS011;2798;42.716;23.256;2022-09-01T02:06:19;25.13;;;16.20;;
5549;SDS011;2798;42.716;23.256;2022-09-01T02:08:48;21.27;;;14.87;;
5549;SDS011;2798;42.716;23.256;2022-09-01T02:11:16;22.23;;;15.77;;
5549;SDS011;2798;42.716;23.256;2022-09-01T02:13:42;21.13;;;15.10;;
5549;SDS011;2798;42.716;23.256;2022-09-01T02:16:11;27.27;;;17.70;;
5549;SDS011;2798;42.716;23.256;2022-09-01T02:18:37;22.60;;;16.00;;
5549;SDS011;2798;42.716;23.256;2022-09-01T02:21:12;24.53;;;15.70;;
5549;SDS011;2798;42.716;23.256;2022-09-01T02:23:43;29.13;;;17.90;;
5549;SDS011;2798;42.716;23.256;2022-09-01T02:26:10;25.93;;;17.57;;
5549;SDS011;2798;42.716;23.256;2022-09-01T02:28:37;32.00;;;18.73;;
5549;SDS011;2798;42.716;23.256;2022-09-01T02:31:06;30.90;;;18.67;;
5549;SDS011;2798;42.716;23.256;2022-09-01T02:33:33;27.97;;;19.40;;
5549;SDS011;2798;42.716;23.256;2022-09-01T02:36:01;29.30;;;19.50;;
5549;SDS011;2798;42.716;23.256;2022-09-01T02:38:37;29.53;;;19.20;;
5549;SDS011;2798;42.716;23.256;2022-09-01T02:41:05;25.80;;;19.10;;
5549;SDS011;2798;42.716;23.256;2022-09-01T02:43:31;25.33;;;18.20;;
5549;SDS011;2798;42.716;23.256;2022-09-01T02:45:59;26.93;;;18.00;;
5549;SDS011;2798;42.716;23.256;2022-09-01T02:50:59;31.43;;;19.07;;
5549;SDS011;2798;42.716;23.256;2022-09-01T02:53:29;31.70;;;20.57;;
5549;SDS011;2798;42.716;23.256;2022-09-01T02:55:56;31.63;;;20.33;;
5549;SDS011;2798;42.716;23.256;2022-09-01T02:58:27;36.57;;;21.90;;
5549;SDS011;2798;42.716;23.256;2022-09-01T03:00:54;28.60;;;20.73;;
5549;SDS011;2798;42.716;23.256;2022-09-01T03:03:21;33.13;;;21.20;;
5549;SDS011;2798;42.716;23.256;2022-09-01T03:05:50;38.07;;;21.70;;
5549;SDS011;2798;42.716;23.256;2022-09-01T03:08:21;36.27;;;23.90;;
5549;SDS011;2798;42.716;23.256;2022-09-01T03:10:48;40.93;;;24.60;;
5549;SDS011;2798;42.716;23.256;2022-09-01T03:13:17;33.63;;;22.93;;
5549;SDS011;2798;42.716;23.256;2022-09-01T03:15:44;36.47;;;22.23;;
5549;SDS011;2798;42.716;23.256;2022-09-01T03:18:11;37.27;;;23.83;;
5549;SDS011;2798;42.716;23.256;2022-09-01T03:20:39;33.30;;;21.13;;
5549;SDS011;2798;42.716;23.256;2022-09-01T03:23:11;36.70;;;23.27;;
5549;SDS011;2798;42.716;23.256;2022-09-01T03:25:39;44.03;;;26.63;;
5549;SDS011;2798;42.716;23.256;2022-09-01T03:28:06;43.67;;;24.47;;
5549;SDS011;2798;42.716;23.256;2022-09-01T03:30:33;53.30;;;28.67;;
5549;SDS011;2798;42.716;23.256;2022-09-01T03:33:03;53.60;;;25.93;;
5549;SDS011;2798;42.716;23.256;2022-09-01T03:35:29;47.13;;;26.47;;
5549;SDS011;2798;42.716;23.256;2022-09-01T03:37:56;43.97;;;23.77;;
5549;SDS011;2798;42.716;23.256;2022-09-01T03:40:23;55.17;;;24.53;;
5549;SDS011;2798;42.716;23.256;2022-09-01T03:42:56;42.70;;;23.80;;
5549;SDS011;2798;42.716;23.256;2022-09-01T03:45:25;86.50;;;25.03;;
5549;SDS011;2798;42.716;23.256;2022-09-01T03:47:53;36.37;;;24.33;;
5549;SDS011;2798;42.716;23.256;2022-09-01T03:50:21;43.67;;;24.30;;
5549;SDS011;2798;42.716;23.256;2022-09-01T03:52:48;41.43;;;24.10;;
5549;SDS011;2798;42.716;23.256;2022-09-01T03:55:18;51.27;;;23.90;;
5549;SDS011;2798;42.716;23.256;2022-09-01T03:57:52;53.60;;;25.00;;
5549;SDS011;2798;42.716;23.256;2022-09-01T04:00:20;102.13;;;24.60;;
5549;SDS011;2798;42.716;23.256;2022-09-01T04:02:48;45.90;;;23.90;;
5549;SDS011;2798;42.716;23.256;2022-09-01T04:05:18;68.03;;;23.23;;
5549;SDS011;2798;42.716;23.256;2022-09-01T04:07:47;44.17;;;22.43;;
5549;SDS011;2798;42.716;23.256;2022-09-01T04:10:14;67.40;;;24.50;;
5549;SDS011;2798;42.716;23.256;2022-09-01T04:12:41;76.13;;;22.27;;
5549;SDS011;2798;42.716;23.256;2022-09-01T04:15:08;34.97;;;20.90;;
5549;SDS011;2798;42.716;23.256;2022-09-01T04:17:34;54.80;;;22.83;;
5549;SDS011;2798;42.716;23.256;2022-09-01T04:20:19;38.57;;;22.67;;
5549;SDS011;2798;42.716;23.256;2022-09-01T04:22:45;75.20;;;22.47;;
5549;SDS011;2798;42.716;23.256;2022-09-01T04:25:12;40.73;;;23.03;;
5549;SDS011;2798;42.716;23.256;2022-09-01T04:27:38;34.73;;;22.77;;
5549;SDS011;2798;42.716;23.256;2022-09-01T04:30:05;42.30;;;22.60;;
5549;SDS011;2798;42.716;23.256;2022-09-01T04:32:35;32.60;;;20.40;;
5549;SDS011;2798;42.716;23.256;2022-09-01T04:35:02;32.37;;;22.10;;
5549;SDS011;2798;42.716;23.256;2022-09-01T04:37:29;33.87;;;23.33;;
5549;SDS011;2798;42.716;23.256;2022-09-01T04:39:54;31.97;;;22.80;;
5549;SDS011;2798;42.716;23.256;2022-09-01T04:42:21;37.53;;;23.63;;
5549;SDS011;2798;42.716;23.256;2022-09-01T04:44:48;39.60;;;23.57;;
5549;SDS011;2798;42.716;23.256;2022-09-01T04:47:14;43.53;;;24.03;;
5549;SDS011;2798;42.716;23.256;2022-09-01T04:49:43;40.37;;;25.10;;
5549;SDS011;2798;42.716;23.256;2022-09-01T04:52:12;48.13;;;28.40;;
5549;SDS011;2798;42.716;23.256;2022-09-01T04:54:38;36.90;;;24.00;;
5549;SDS011;2798;42.716;23.256;2022-09-01T04:57:04;40.53;;;23.67;;
5549;SDS011;2798;42.716;23.256;2022-09-01T04:59:31;38.47;;;22.83;;
5549;SDS011;2798;42.716;23.256;2022-09-01T05:01:57;41.20;;;25.00;;
5549;SDS011;2798;42.716;23.256;2022-09-01T05:04:26;35.10;;;22.20;;
5549;SDS011;2798;42.716;23.256;2022-09-01T05:06:58;35.37;;;23.30;;
5549;SDS011;2798;42.716;23.256;2022-09-01T05:09:26;35.80;;;21.93;;
5549;SDS011;2798;42.716;23.256;2022-09-01T05:11:53;38.77;;;21.50;;
5549;SDS011;2798;42.716;23.256;2022-09-01T05:14:20;42.07;;;21.23;;
5549;SDS011;2798;42.716;23.256;2022-09-01T05:16:48;29.60;;;20.63;;
5549;SDS011;2798;42.716;23.256;2022-09-01T05:19:15;28.30;;;21.03;;
5549;SDS011;2798;42.716;23.256;2022-09-01T05:21:42;32.60;;;21.67;;
5549;SDS011;2798;42.716;23.256;2022-09-01T05:24:14;33.93;;;21.67;;
5549;SDS011;2798;42.716;23.256;2022-09-01T05:26:46;37.33;;;22.73;;
5549;SDS011;2798;42.716;23.256;2022-09-01T05:29:13;34.73;;;21.43;;
5549;SDS011;2798;42.716;23.256;2022-09-01T05:31:42;37.67;;;20.27;;
5549;SDS011;2798;42.716;23.256;2022-09-01T05:34:09;36.03;;;21.67;;
5549;SDS011;2798;42.716;23.256;2022-09-01T05:36:36;26.00;;;19.00;;
5549;SDS011;2798;42.716;23.256;2022-09-01T05:39:06;30.33;;;21.10;;
5549;SDS011;2798;42.716;23.256;2022-09-01T05:41:33;28.53;;;21.07;;
5549;SDS011;2798;42.716;23.256;2022-09-01T05:44:00;34.60;;;20.67;;
5549;SDS011;2798;42.716;23.256;2022-09-01T05:46:28;33.60;;;21.57;;
5549;SDS011;2798;42.716;23.256;2022-09-01T05:48:54;30.03;;;20.47;;
5549;SDS011;2798;42.716;23.256;2022-09-01T05:51:23;33.03;;;21.60;;
5549;SDS011;2798;42.716;23.256;2022-09-01T05:53:51;29.37;;;19.37;;
5549;SDS011;2798;42.716;23.256;2022-09-01T05:56:19;30.67;;;21.43;;
5549;SDS011;2798;42.716;23.256;2022-09-01T05:58:48;26.00;;;19.77;;
5549;SDS011;2798;42.716;23.256;2022-09-01T06:01:15;31.77;;;22.50;;
5549;SDS011;2798;42.716;23.256;2022-09-01T06:03:46;28.47;;;21.53;;
5549;SDS011;2798;42.716;23.256;2022-09-01T06:06:19;30.37;;;20.00;;
5549;SDS011;2798;42.716;23.256;2022-09-01T06:08:47;41.13;;;19.83;;
5549;SDS011;2798;42.716;23.256;2022-09-01T06:11:14;31.17;;;19.60;;
5549;SDS011;2798;42.716;23.256;2022-09-01T06:13:41;27.13;;;21.00;;
5549;SDS011;2798;42.716;23.256;2022-09-01T06:16:08;29.07;;;21.10;;
5549;SDS011;2798;42.716;23.256;2022-09-01T06:18:34;28.97;;;21.27;;
5549;SDS011;2798;42.716;23.256;2022-09-01T06:21:02;27.73;;;20.93;;
5549;SDS011;2798;42.716;23.256;2022-09-01T06:23:28;31.67;;;21.33;;
5549;SDS011;2798;42.716;23.256;2022-09-01T06:25:54;30.90;;;22.93;;
5549;SDS011;2798;42.716;23.256;2022-09-01T06:28:19;40.43;;;24.37;;
5549;SDS011;2798;42.716;23.256;2022-09-01T06:30:48;29.70;;;22.57;;
5549;SDS011;2798;42.716;23.256;2022-09-01T06:33:15;34.90;;;24.20;;
5549;SDS011;2798;42.716;23.256;2022-09-01T06:35:41;32.20;;;22.47;;
5549;SDS011;2798;42.716;23.256;2022-09-01T06:38:11;34.37;;;24.60;;
5549;SDS011;2798;42.716;23.256;2022-09-01T06:40:38;37.93;;;24.80;;
5549;SDS011;2798;42.716;23.256;2022-09-01T06:43:06;32.30;;;21.83;;
5549;SDS011;2798;42.716;23.256;2022-09-01T06:45:38;36.93;;;23.00;;
5549;SDS011;2798;42.716;23.256;2022-09-01T06:48:06;30.63;;;22.93;;
5549;SDS011;2798;42.716;23.256;2022-09-01T06:50:31;33.13;;;23.53;;
5549;SDS011;2798;42.716;23.256;2022-09-01T06:52:57;39.43;;;26.83;;
5549;SDS011;2798;42.716;23.256;2022-09-01T06:55:35;34.80;;;25.00;;
5549;SDS011;2798;42.716;23.256;2022-09-01T06:58:04;37.17;;;24.80;;
5549;SDS011;2798;42.716;23.256;2022-09-01T07:00:32;36.23;;;24.90;;
5549;SDS011;2798;42.716;23.256;2022-09-01T07:03:06;37.53;;;27.93;;
5549;SDS011;2798;42.716;23.256;2022-09-01T07:05:36;36.63;;;26.10;;
5549;SDS011;2798;42.716;23.256;2022-09-01T07:08:03;32.93;;;25.17;;
5549;SDS011;2798;42.716;23.256;2022-09-01T07:10:32;54.27;;;26.97;;
5549;SDS011;2798;42.716;23.256;2022-09-01T07:12:58;35.80;;;25.47;;
5549;SDS011;2798;42.716;23.256;2022-09-01T07:15:25;40.00;;;25.10;;
5549;SDS011;2798;42.716;23.256;2022-09-01T07:17:53;32.47;;;25.30;;
5549;SDS011;2798;42.716;23.256;2022-09-01T07:20:21;36.93;;;25.00;;
5549;SDS011;2798;42.716;23.256;2022-09-01T07:22:49;73.97;;;26.60;;
5549;SDS011;2798;42.716;23.256;2022-09-01T07:25:16;49.00;;;25.90;;
5549;SDS011;2798;42.716;23.256;2022-09-01T07:27:42;35.60;;;25.23;;
5549;SDS011;2798;42.716;23.256;2022-09-01T07:30:18;33.83;;;24.17;;
5549;SDS011;2798;42.716;23.256;2022-09-01T07:32:47;35.93;;;25.43;;
5549;SDS011;2798;42.716;23.256;2022-09-01T07:35:14;35.83;;;25.17;;
5549;SDS011;2798;42.716;23.256;2022-09-01T07:37:43;31.27;;;23.30;;
5549;SDS011;2798;42.716;23.256;2022-09-01T07:40:11;35.50;;;25.27;;
5549;SDS011;2798;42.716;23.256;2022-09-01T07:42:47;42.23;;;26.40;;
5549;SDS011;2798;42.716;23.256;2022-09-01T07:45:18;37.63;;;27.47;;
5549;SDS011;2798;42.716;23.256;2022-09-01T07:47:43;36.63;;;26.70;;
5549;SDS011;2798;42.716;23.256;2022-09-01T07:50:10;39.43;;;26.43;;
5549;SDS011;2798;42.716;23.256;2022-09-01T07:52:39;31.97;;;24.70;;
5549;SDS011;2798;42.716;23.256;2022-09-01T07:55:09;34.53;;;24.90;;
5549;SDS011;2798;42.716;23.256;2022-09-01T07:57:37;46.47;;;25.20;;
5549;SDS011;2798;42.716;23.256;2022-09-01T08:00:06;34.17;;;23.70;;
5549;SDS011;2798;42.716;23.256;2022-09-01T08:02:34;31.20;;;23.40;;
5549;SDS011;2798;42.716;23.256;2022-09-01T08:05:00;33.07;;;22.40;;
5549;SDS011;2798;42.716;23.256;2022-09-01T08:07:25;30.50;;;22.30;;
5549;SDS011;2798;42.716;23.256;2022-09-01T08:09:51;31.87;;;22.50;;
5549;SDS011;2798;42.716;23.256;2022-09-01T08:12:17;34.33;;;22.70;;
5549;SDS011;2798;42.716;23.256;2022-09-01T08:14:42;35.67;;;24.33;;
5549;SDS011;2798;42.716;23.256;2022-09-01T08:17:08;42.27;;;25.20;;
5549;SDS011;2798;42.716;23.256;2022-09-01T08:19:33;34.53;;;24.60;;
5549;SDS011;2798;42.716;23.256;2022-09-01T08:22:00;34.63;;;22.80;;
5549;SDS011;2798;42.716;23.256;2022-09-01T08:24:26;27.50;;;22.50;;
5549;SDS011;2798;42.716;23.256;2022-09-01T08:26:51;25.23;;;19.73;;
5549;SDS011;2798;42.716;23.256;2022-09-01T08:29:17;20.50;;;15.90;;
5549;SDS011;2798;42.716;23.256;2022-09-01T08:31:42;32.07;;;21.00;;
5549;SDS011;2798;42.716;23.256;2022-09-01T08:34:10;32.33;;;20.97;;
5549;SDS011;2798;42.716;23.256;2022-09-01T08:36:36;32.00;;;21.30;;
5549;SDS011;2798;42.716;23.256;2022-09-01T08:39:02;28.57;;;21.20;;
5549;SDS011;2798;42.716;23.256;2022-09-01T08:44:03;31.30;;;20.30;;
5549;SDS011;2798;42.716;23.256;2022-09-01T08:46:45;23.40;;;17.23;;
5549;SDS011;2798;42.716;23.256;2022-09-01T08:49:20;23.83;;;17.20;;
5549;SDS011;2798;42.716;23.256;2022-09-01T08:51:49;23.47;;;16.40;;
5549;SDS011;2798;42.716;23.256;2022-09-01T08:56:53;22.47;;;17.73;;
5549;SDS011;2798;42.716;23.256;2022-09-01T08:59:29;24.43;;;16.20;;
5549;SDS011;2798;42.716;23.256;2022-09-01T09:15:43;24.57;;;14.03;;
5549;SDS011;2798;42.716;23.256;2022-09-01T09:21:14;14.20;;;12.27;;
5549;SDS011;2798;42.716;23.256;2022-09-01T09:23:47;15.67;;;11.40;;
5549;SDS011;2798;42.716;23.256;2022-09-01T09:26:20;12.97;;;10.03;;
5549;SDS011;2798;42.716;23.256;2022-09-01T09:28:46;18.90;;;12.20;;
5549;SDS011;2798;42.716;23.256;2022-09-01T09:31:27;21.93;;;12.83;;
5549;SDS011;2798;42.716;23.256;2022-09-01T09:33:52;14.77;;;12.60;;
5549;SDS011;2798;42.716;23.256;2022-09-01T09:36:23;13.00;;;11.57;;
5549;SDS011;2798;42.716;23.256;2022-09-01T09:39:14;19.10;;;11.10;;
5549;SDS011;2798;42.716;23.256;2022-09-01T09:41:42;15.83;;;10.90;;
5549;SDS011;2798;42.716;23.256;2022-09-01T09:44:28;14.93;;;10.67;;
5549;SDS011;2798;42.716;23.256;2022-09-01T09:46:56;16.07;;;9.50;;
5549;SDS011;2798;42.716;23.256;2022-09-01T09:51:53;13.03;;;9.77;;
5549;SDS011;2798;42.716;23.256;2022-09-01T09:54:21;15.70;;;10.60;;
5549;SDS011;2798;42.716;23.256;2022-09-01T09:59:40;18.83;;;9.13;;
5549;SDS011;2798;42.716;23.256;2022-09-01T10:05:45;15.73;;;11.20;;
5549;SDS011;2798;42.716;23.256;2022-09-01T10:07:49;15.60;;;10.30;;
5549;SDS011;2798;42.716;23.256;2022-09-01T10:10:27;23.90;;;11.37;;
5549;SDS011;2798;42.716;23.256;2022-09-01T10:13:13;17.30;;;10.87;;
5549;SDS011;2798;42.716;23.256;2022-09-01T10:15:48;14.10;;;10.23;;
5549;SDS011;2798;42.716;23.256;2022-09-01T10:18:17;15.93;;;10.30;;
5549;SDS011;2798;42.716;23.256;2022-09-01T10:20:53;15.33;;;11.07;;
5549;SDS011;2798;42.716;23.256;2022-09-01T10:23:24;18.67;;;10.17;;
5549;SDS011;2798;42.716;23.256;2022-09-01T10:25:52;14.63;;;10.27;;
5549;SDS011;2798;42.716;23.256;2022-09-01T10:28:45;15.33;;;11.33;;
5549;SDS011;2798;42.716;23.256;2022-09-01T10:31:17;15.70;;;11.20;;
5549;SDS011;2798;42.716;23.256;2022-09-01T10:33:44;13.10;;;10.77;;
5549;SDS011;2798;42.716;23.256;2022-09-01T10:36:10;19.23;;;10.97;;
5549;SDS011;2798;42.716;23.256;2022-09-01T10:38:37;14.93;;;12.33;;
5549;SDS011;2798;42.716;23.256;2022-09-01T10:41:03;19.07;;;12.17;;
5549;SDS011;2798;42.716;23.256;2022-09-01T10:43:37;21.57;;;11.07;;
5549;SDS011;2798;42.716;23.256;2022-09-01T10:48:48;21.13;;;11.03;;
5549;SDS011;2798;42.716;23.256;2022-09-01T10:53:50;20.57;;;10.70;;
5549;SDS011;2798;42.716;23.256;2022-09-01T10:56:18;16.63;;;11.10;;
5549;SDS011;2798;42.716;23.256;2022-09-01T11:04:07;19.13;;;10.63;;
5549;SDS011;2798;42.716;23.256;2022-09-01T11:14:54;14.03;;;10.93;;
5549;SDS011;2798;42.716;23.256;2022-09-01T11:17:22;19.80;;;10.40;;
5549;SDS011;2798;42.716;23.256;2022-09-01T11:22:43;15.90;;;12.50;;
5549;SDS011;2798;42.716;23.256;2022-09-01T11:25:35;19.50;;;10.73;;
5549;SDS011;2798;42.716;23.256;2022-09-01T11:28:09;18.50;;;10.30;;
5549;SDS011;2798;42.716;23.256;2022-09-01T11:38:49;13.60;;;9.07;;
5549;SDS011;2798;42.716;23.256;2022-09-01T11:44:24;15.77;;;9.47;;
5549;SDS011;2798;42.716;23.256;2022-09-01T11:46:57;15.37;;;8.00;;
5549;SDS011;2798;42.716;23.256;2022-09-01T11:51:59;11.47;;;8.63;;
5549;SDS011;2798;42.716;23.256;2022-09-01T11:54:27;18.97;;;10.13;;
5549;SDS011;2798;42.716;23.256;2022-09-01T11:57:15;16.40;;;9.40;;
5549;SDS011;2798;42.716;23.256;2022-09-01T11:59:53;18.47;;;9.40;;
5549;SDS011;2798;42.716;23.256;2022-09-01T12:02:21;12.53;;;9.33;;
5549;SDS011;2798;42.716;23.256;2022-09-01T12:04:58;11.77;;;8.83;;
5549;SDS011;2798;42.716;23.256;2022-09-01T12:07:39;12.40;;;9.50;;
5549;SDS011;2798;42.716;23.256;2022-09-01T12:13:03;13.00;;;10.20;;
5549;SDS011;2798;42.716;23.256;2022-09-01T12:15:33;19.73;;;10.30;;
5549;SDS011;2798;42.716;23.256;2022-09-01T12:18:13;20.23;;;10.93;;
5549;SDS011;2798;42.716;23.256;2022-09-01T12:20:43;18.77;;;10.37;;
5549;SDS011;2798;42.716;23.256;2022-09-01T12:23:17;12.00;;;9.23;;
5549;SDS011;2798;42.716;23.256;2022-09-01T12:25:58;14.00;;;9.93;;
5549;SDS011;2798;42.716;23.256;2022-09-01T12:28:26;18.57;;;10.03;;
5549;SDS011;2798;42.716;23.256;2022-09-01T12:31:02;16.60;;;10.53;;
5549;SDS011;2798;42.716;23.256;2022-09-01T12:33:31;17.30;;;10.10;;
5549;SDS011;2798;42.716;23.256;2022-09-01T12:38:44;17.97;;;10.70;;
5549;SDS011;2798;42.716;23.256;2022-09-01T12:46:56;19.23;;;9.77;;
5549;SDS011;2798;42.716;23.256;2022-09-01T12:49:25;12.73;;;9.90;;
5549;SDS011;2798;42.716;23.256;2022-09-01T12:52:32;15.43;;;9.87;;
5549;SDS011;2798;42.716;23.256;2022-09-01T12:54:53;17.93;;;10.43;;
5549;SDS011;2798;42.716;23.256;2022-09-01T12:57:29;13.20;;;9.13;;
5549;SDS011;2798;42.716;23.256;2022-09-01T13:02:37;16.70;;;10.20;;
5549;SDS011;2798;42.716;23.256;2022-09-01T13:05:25;19.47;;;10.50;;
5549;SDS011;2798;42.716;23.256;2022-09-01T13:10:33;18.80;;;10.53;;
5549;SDS011;2798;42.716;23.256;2022-09-01T13:13:04;13.33;;;10.57;;
5549;SDS011;2798;42.716;23.256;2022-09-01T13:15:31;13.60;;;10.03;;
5549;SDS011;2798;42.716;23.256;2022-09-01T13:17:58;15.83;;;11.10;;
5549;SDS011;2798;42.716;23.256;2022-09-01T13:20:24;12.00;;;10.07;;
5549;SDS011;2798;42.716;23.256;2022-09-01T13:22:49;12.17;;;9.40;;
5549;SDS011;2798;42.716;23.256;2022-09-01T13:25:16;15.20;;;11.17;;
5549;SDS011;2798;42.716;23.256;2022-09-01T13:27:44;13.80;;;11.73;;
5549;SDS011;2798;42.716;23.256;2022-09-01T13:30:12;15.00;;;12.50;;
5549;SDS011;2798;42.716;23.256;2022-09-01T13:32:40;12.40;;;10.93;;
5549;SDS011;2798;42.716;23.256;2022-09-01T13:35:07;18.27;;;11.50;;
5549;SDS011;2798;42.716;23.256;2022-09-01T13:37:33;16.27;;;11.50;;
5549;SDS011;2798;42.716;23.256;2022-09-01T13:39:59;15.30;;;11.60;;
5549;SDS011;2798;42.716;23.256;2022-09-01T13:42:25;21.10;;;16.80;;
5549;SDS011;2798;42.716;23.256;2022-09-01T13:44:50;22.80;;;20.17;;
5549;SDS011;2798;42.716;23.256;2022-09-01T13:47:16;15.70;;;11.00;;
5549;SDS011;2798;42.716;23.256;2022-09-01T13:49:41;17.13;;;10.70;;
5549;SDS011;2798;42.716;23.256;2022-09-01T13:52:07;15.40;;;10.20;;
5549;SDS011;2798;42.716;23.256;2022-09-01T13:54:32;15.57;;;10.33;;
5549;SDS011;2798;42.716;23.256;2022-09-01T13:56:58;15.63;;;10.37;;
5549;SDS011;2798;42.716;23.256;2022-09-01T13:59:23;14.23;;;9.67;;
5549;SDS011;2798;42.716;23.256;2022-09-01T14:01:49;20.80;;;11.97;;
5549;SDS011;2798;42.716;23.256;2022-09-01T14:04:14;14.40;;;12.60;;
5549;SDS011;2798;42.716;23.256;2022-09-01T14:06:40;24.13;;;11.17;;
5549;SDS011;2798;42.716;23.256;2022-09-01T14:09:08;14.77;;;10.13;;
5549;SDS011;2798;42.716;23.256;2022-09-01T14:11:34;14.40;;;9.43;;
5549;SDS011;2798;42.716;23.256;2022-09-01T14:14:00;14.07;;;9.50;;
5549;SDS011;2798;42.716;23.256;2022-09-01T14:16:26;16.20;;;9.13;;
5549;SDS011;2798;42.716;23.256;2022-09-01T14:18:51;12.77;;;10.50;;
5549;SDS011;2798;42.716;23.256;2022-09-01T14:21:17;12.40;;;9.67;;
5549;SDS011;2798;42.716;23.256;2022-09-01T14:23:43;13.53;;;10.77;;
5549;SDS011;2798;42.716;23.256;2022-09-01T14:26:11;16.90;;;9.70;;
5549;SDS011;2798;42.716;23.256;2022-09-01T14:28:39;10.47;;;9.27;;
5549;SDS011;2798;42.716;23.256;2022-09-01T14:31:09;10.20;;;8.80;;
5549;SDS011;2798;42.716;23.256;2022-09-01T14:33:39;14.70;;;9.10;;
5549;SDS011;2798;42.716;23.256;2022-09-01T14:36:05;10.73;;;8.20;;
5549;SDS011;2798;42.716;23.256;2022-09-01T14:38:32;14.33;;;9.73;;
5549;SDS011;2798;42.716;23.256;2022-09-01T14:40:59;14.10;;;8.93;;
5549;SDS011;2798;42.716;23.256;2022-09-01T14:43:25;19.10;;;11.03;;
5549;SDS011;2798;42.716;23.256;2022-09-01T14:46:00;15.73;;;10.63;;
5549;SDS011;2798;42.716;23.256;2022-09-01T14:48:34;20.80;;;11.87;;
5549;SDS011;2798;42.716;23.256;2022-09-01T14:51:00;17.83;;;11.87;;
5549;SDS011;2798;42.716;23.256;2022-09-01T14:53:29;13.83;;;9.93;;
5549;SDS011;2798;42.716;23.256;2022-09-01T14:55:56;18.20;;;10.90;;
5549;SDS011;2798;42.716;23.256;2022-09-01T14:58:22;14.03;;;10.70;;
5549;SDS011;2798;42.716;23.256;2022-09-01T15:00:50;15.50;;;11.03;;
5549;SDS011;2798;42.716;23.256;2022-09-01T15:03:16;22.70;;;11.03;;
5549;SDS011;2798;42.716;23.256;2022-09-01T15:05:41;13.53;;;10.30;;
5549;SDS011;2798;42.716;23.256;2022-09-01T15:08:07;16.63;;;11.67;;
5549;SDS011;2798;42.716;23.256;2022-09-01T15:10:33;18.43;;;10.77;;
5549;SDS011;2798;42.716;23.256;2022-09-01T15:13:00;18.90;;;11.47;;
5549;SDS011;2798;42.716;23.256;2022-09-01T15:15:27;19.63;;;11.20;;
5549;SDS011;2798;42.716;23.256;2022-09-01T15:17:54;13.50;;;11.70;;
5549;SDS011;2798;42.716;23.256;2022-09-01T15:20:20;14.77;;;11.33;;
5549;SDS011;2798;42.716;23.256;2022-09-01T15:23:04;23.40;;;18.10;;
5549;SDS011;2798;42.716;23.256;2022-09-01T15:25:30;24.40;;;12.10;;
5549;SDS011;2798;42.716;23.256;2022-09-01T15:27:56;11.73;;;10.53;;
5549;SDS011;2798;42.716;23.256;2022-09-01T15:30:21;15.27;;;9.67;;
5549;SDS011;2798;42.716;23.256;2022-09-01T15:32:48;16.83;;;9.50;;
5549;SDS011;2798;42.716;23.256;2022-09-01T15:35:16;12.77;;;9.80;;
5549;SDS011;2798;42.716;23.256;2022-09-01T15:37:44;15.70;;;9.20;;
5549;SDS011;2798;42.716;23.256;2022-09-01T15:40:11;11.80;;;9.23;;
5549;SDS011;2798;42.716;23.256;2022-09-01T15:42:37;18.00;;;11.47;;
5549;SDS011;2798;42.716;23.256;2022-09-01T15:45:03;13.47;;;8.60;;
5549;SDS011;2798;42.716;23.256;2022-09-01T15:47:32;16.40;;;9.13;;
5549;SDS011;2798;42.716;23.256;2022-09-01T15:49:58;14.97;;;8.57;;
5549;SDS011;2798;42.716;23.256;2022-09-01T15:52:24;12.57;;;9.10;;
5549;SDS011;2798;42.716;23.256;2022-09-01T15:54:51;13.73;;;8.90;;
5549;SDS011;2798;42.716;23.256;2022-09-01T15:57:17;12.70;;;9.57;;
5549;SDS011;2798;42.716;23.256;2022-09-01T15:59:43;14.93;;;9.70;;
5549;SDS011;2798;42.716;23.256;2022-09-01T16:02:09;14.23;;;9.20;;
5549;SDS011;2798;42.716;23.256;2022-09-01T16:04:36;14.10;;;9.47;;
5549;SDS011;2798;42.716;23.256;2022-09-01T16:07:02;16.60;;;10.13;;
5549;SDS011;2798;42.716;23.256;2022-09-01T16:09:27;15.33;;;9.83;;
5549;SDS011;2798;42.716;23.256;2022-09-01T16:11:53;18.57;;;10.00;;
5549;SDS011;2798;42.716;23.256;2022-09-01T16:14:19;17.73;;;9.40;;
5549;SDS011;2798;42.716;23.256;2022-09-01T16:22:46;17.73;;;10.10;;
5549;SDS011;2798;42.716;23.256;2022-09-01T16:24:51;16.03;;;9.63;;
5549;SDS011;2798;42.716;23.256;2022-09-01T16:27:22;20.20;;;9.93;;